Time;durP1;ratioP1;P1;durP2;ratioP2;P2;SDS_P1;SDS_P2;PMS_P1;PMS_P2;Temp;Humidity;BMP_temperature;BMP_pressure;BME280_temperature;BME280_humidity;BME280_pressure;Samples;Min_cycle;Max_cycle;Signal;HPM_P1;HPM_P2
2021/06/14 00:01:45;;;;;;;7.38;4.75;;;;;;;;;;5054864;28;38676;-79
2021/06/14 00:04:11;;;;;;;8.88;5.50;;;;;;;;;;5060639;28;40529;-81
2021/06/14 00:06:38;;;;;;;12.20;5.32;;;;;;;;;;5029377;28;40165;-82
2021/06/14 00:09:05;;;;;;;7.68;4.95;;;;;;;;;;5032146;28;39530;-82
2021/06/14 00:11:32;;;;;;;7.28;4.53;;;;;;;;;;5024423;28;38546;-79
2021/06/14 00:13:58;;;;;;;8.77;5.53;;;;;;;;;;5058520;28;39778;-81
2021/06/14 00:16:25;;;;;;;10.07;5.55;;;;;;;;;;5028964;28;38668;-82
2021/06/14 00:18:51;;;;;;;9.48;5.00;;;;;;;;;;5033408;28;36953;-81
2021/06/14 00:21:17;;;;;;;8.48;5.45;;;;;;;;;;5069655;27;37357;-81
2021/06/14 00:23:44;;;;;;;6.63;5.07;;;;;;;;;;5048190;28;38528;-82
2021/06/14 00:26:12;;;;;;;8.15;5.47;;;;;;;;;;5047177;27;38784;-82
2021/06/14 00:28:40;;;;;;;11.85;5.47;;;;;;;;;;5052181;28;40063;-81
2021/06/14 00:31:08;;;;;;;7.47;4.47;;;;;;;;;;5047962;28;37491;-81
2021/06/14 00:33:35;;;;;;;11.32;6.03;;;;;;;;;;5061593;28;38612;-83
2021/06/14 00:36:01;;;;;;;6.57;5.65;;;;;;;;;;5050100;27;39972;-81
2021/06/14 00:38:28;;;;;;;8.32;5.05;;;;;;;;;;5045974;27;48632;-82
2021/06/14 00:40:54;;;;;;;8.38;5.60;;;;;;;;;;5038774;27;36605;-81
2021/06/14 00:43:21;;;;;;;10.63;5.80;;;;;;;;;;5043201;28;38513;-80
2021/06/14 00:45:49;;;;;;;10.15;5.25;;;;;;;;;;5052577;28;39436;-80
2021/06/14 00:48:16;;;;;;;8.35;5.43;;;;;;;;;;5047325;28;38828;-81
2021/06/14 00:50:46;;;;;;;7.78;4.90;;;;;;;;;;5061502;27;37317;-79
2021/06/14 00:53:21;;;;;;;9.75;5.45;;;;;;;;;;5046312;28;38899;-80
2021/06/14 00:55:48;;;;;;;12.40;5.82;;;;;;;;;;5083773;27;39992;-80
2021/06/14 00:58:14;;;;;;;7.28;5.75;;;;;;;;;;5045920;27;38903;-83
2021/06/14 01:00:41;;;;;;;8.07;5.68;;;;;;;;;;5051154;27;37102;-81
2021/06/14 01:03:08;;;;;;;17.40;5.65;;;;;;;;;;5053050;27;39788;-80
2021/06/14 01:05:37;;;;;;;8.15;5.53;;;;;;;;;;5047480;28;39669;-81
2021/06/14 01:08:03;;;;;;;7.00;5.10;;;;;;;;;;5049282;27;40319;-82
2021/06/14 01:10:29;;;;;;;8.02;5.80;;;;;;;;;;5053371;28;35162;-83
2021/06/14 01:13:07;;;;;;;9.30;6.13;;;;;;;;;;5056859;28;39697;-83
2021/06/14 01:15:43;;;;;;;7.55;5.85;;;;;;;;;;5054987;27;48714;-82
2021/06/14 01:18:11;;;;;;;9.55;6.15;;;;;;;;;;5055568;27;38125;-82
2021/06/14 01:20:47;;;;;;;8.20;5.82;;;;;;;;;;5049372;28;37360;-81
2021/06/14 01:23:32;;;;;;;6.60;5.72;;;;;;;;;;5048249;27;39147;-81
2021/06/14 01:26:04;;;;;;;10.80;6.10;;;;;;;;;;5047469;27;40281;-81
2021/06/14 01:28:32;;;;;;;10.25;6.45;;;;;;;;;;5073165;27;47518;-81
2021/06/14 01:30:59;;;;;;;12.10;6.07;;;;;;;;;;5030354;28;38225;-80
2021/06/14 01:33:27;;;;;;;9.63;5.93;;;;;;;;;;5038668;27;39638;-81
2021/06/14 01:35:55;;;;;;;9.73;6.38;;;;;;;;;;5034766;27;39082;-80
2021/06/14 01:38:23;;;;;;;10.77;6.82;;;;;;;;;;5032496;28;38076;-81
2021/06/14 01:40:50;;;;;;;10.30;5.93;;;;;;;;;;5027495;27;36124;-81
2021/06/14 01:43:17;;;;;;;11.65;6.28;;;;;;;;;;5052894;28;40660;-83
2021/06/14 01:45:48;;;;;;;15.00;8.23;;;;;;;;;;5044644;28;38611;-81
2021/06/14 01:48:15;;;;;;;9.27;5.90;;;;;;;;;;5051505;27;40205;-81
2021/06/14 01:50:42;;;;;;;12.73;6.95;;;;;;;;;;5045580;28;38180;-80
2021/06/14 01:53:08;;;;;;;10.43;6.80;;;;;;;;;;5049713;27;39057;-81
2021/06/14 01:55:35;;;;;;;11.10;7.15;;;;;;;;;;5057948;28;38315;-81
2021/06/14 01:58:02;;;;;;;8.00;6.45;;;;;;;;;;5050765;28;37624;-81
2021/06/14 02:00:28;;;;;;;8.30;6.95;;;;;;;;;;5046245;27;46574;-82
2021/06/14 02:02:55;;;;;;;9.00;5.72;;;;;;;;;;5050619;28;40183;-81
2021/06/14 02:05:23;;;;;;;12.25;7.30;;;;;;;;;;5050898;27;39510;-82
2021/06/14 02:07:50;;;;;;;11.15;6.85;;;;;;;;;;5051899;27;38398;-81
2021/06/14 02:10:17;;;;;;;10.13;6.78;;;;;;;;;;5046109;27;36876;-81
2021/06/14 02:12:44;;;;;;;13.77;7.30;;;;;;;;;;5050461;28;39657;-80
2021/06/14 02:15:11;;;;;;;9.82;6.88;;;;;;;;;;5051634;27;39257;-81
2021/06/14 02:17:38;;;;;;;12.07;7.32;;;;;;;;;;5049632;28;39920;-82
2021/06/14 02:20:06;;;;;;;8.75;6.88;;;;;;;;;;5049443;27;36246;-80
2021/06/14 02:22:32;;;;;;;10.23;6.30;;;;;;;;;;5046955;27;47455;-80
2021/06/14 02:24:59;;;;;;;9.70;6.72;;;;;;;;;;5074185;27;38939;-80
2021/06/14 02:27:25;;;;;;;10.35;6.93;;;;;;;;;;5048828;27;40345;-80
2021/06/14 02:29:51;;;;;;;12.88;7.63;;;;;;;;;;5050696;27;37794;-82
2021/06/14 02:32:18;;;;;;;12.98;7.50;;;;;;;;;;5041782;28;39622;-82
2021/06/14 02:34:44;;;;;;;14.68;7.63;;;;;;;;;;5031832;27;39107;-80
2021/06/14 02:37:12;;;;;;;14.98;7.65;;;;;;;;;;5027728;28;39190;-80
2021/06/14 02:39:38;;;;;;;10.10;6.65;;;;;;;;;;5023370;28;36234;-80
2021/06/14 02:42:05;;;;;;;11.77;7.30;;;;;;;;;;5046467;27;40180;-79
2021/06/14 02:44:32;;;;;;;9.57;6.80;;;;;;;;;;5049342;28;37655;-82
2021/06/14 02:47:01;;;;;;;12.45;7.43;;;;;;;;;;5051360;27;39607;-84
2021/06/14 02:49:28;;;;;;;11.57;7.60;;;;;;;;;;5032967;28;47286;-81
2021/06/14 02:51:56;;;;;;;17.67;7.32;;;;;;;;;;5051411;28;40692;-82
2021/06/14 02:54:26;;;;;;;11.77;7.07;;;;;;;;;;5039423;28;39155;-80
2021/06/14 02:56:56;;;;;;;14.45;7.20;;;;;;;;;;5053083;28;38850;-80
2021/06/14 02:59:23;;;;;;;13.18;7.22;;;;;;;;;;5051462;28;37529;-80
2021/06/14 03:01:50;;;;;;;13.35;8.38;;;;;;;;;;5026046;27;39229;-81
2021/06/14 03:04:17;;;;;;;15.25;8.25;;;;;;;;;;5044557;28;39820;-80
2021/06/14 03:06:45;;;;;;;10.13;8.18;;;;;;;;;;5024580;28;39316;-78
2021/06/14 03:09:11;;;;;;;10.73;7.53;;;;;;;;;;5031913;28;35108;-82
2021/06/14 03:11:40;;;;;;;12.70;7.53;;;;;;;;;;5023272;27;39122;-79
2021/06/14 03:14:07;;;;;;;12.45;7.72;;;;;;;;;;5021638;28;40400;-79
2021/06/14 03:16:33;;;;;;;11.05;7.57;;;;;;;;;;5022904;27;38412;-80
2021/06/14 03:19:02;;;;;;;11.48;7.68;;;;;;;;;;5051759;28;37550;-81
2021/06/14 03:21:30;;;;;;;12.82;7.20;;;;;;;;;;5075789;27;47104;-79
2021/06/14 03:23:56;;;;;;;13.93;8.02;;;;;;;;;;5045046;27;39277;-80
2021/06/14 03:26:27;;;;;;;11.98;7.30;;;;;;;;;;5044048;27;38789;-80
2021/06/14 03:28:55;;;;;;;10.95;7.78;;;;;;;;;;5052623;28;37608;-82
2021/06/14 03:31:22;;;;;;;9.60;7.60;;;;;;;;;;5045793;28;38850;-83
2021/06/14 03:33:50;;;;;;;11.95;7.90;;;;;;;;;;5042897;27;39430;-79
2021/06/14 03:36:17;;;;;;;10.50;8.13;;;;;;;;;;5032443;28;39526;-79
2021/06/14 03:38:47;;;;;;;9.52;6.95;;;;;;;;;;5021951;28;37315;-82
2021/06/14 03:41:14;;;;;;;8.60;6.80;;;;;;;;;;5029295;28;38290;-81
2021/06/14 03:43:41;;;;;;;11.52;7.63;;;;;;;;;;5053417;28;40476;-82
2021/06/14 03:46:08;;;;;;;14.57;7.85;;;;;;;;;;5055704;28;38830;-80
2021/06/14 03:48:34;;;;;;;12.50;7.25;;;;;;;;;;5047143;28;37524;-83
2021/06/14 03:51:00;;;;;;;12.20;7.75;;;;;;;;;;5031144;28;39646;-83
2021/06/14 03:53:33;;;;;;;11.35;7.47;;;;;;;;;;5021713;27;47137;-81
2021/06/14 03:55:59;;;;;;;;;;;;;;;;;;5036536;28;39195;-83
2021/06/14 03:58:25;;;;;;;11.73;7.53;;;;;;;;;;5027505;28;35612;-79
2021/06/14 04:00:52;;;;;;;10.73;7.50;;;;;;;;;;5023325;27;39965;-81
2021/06/14 04:03:19;;;;;;;11.75;6.97;;;;;;;;;;5022840;28;39705;-81
2021/06/14 04:05:46;;;;;;;10.80;7.03;;;;;;;;;;5049877;28;39015;-82
2021/06/14 04:08:12;;;;;;;11.20;7.05;;;;;;;;;;5051477;28;39933;-83
2021/06/14 04:10:39;;;;;;;8.75;6.68;;;;;;;;;;5032449;28;39439;-82
2021/06/14 04:13:09;;;;;;;11.15;7.35;;;;;;;;;;5023977;28;39619;-82
2021/06/14 04:15:36;;;;;;;11.82;8.15;;;;;;;;;;5053029;28;40697;-81
2021/06/14 04:18:03;;;;;;;8.60;7.07;;;;;;;;;;5070453;28;37152;-82
2021/06/14 04:20:29;;;;;;;15.23;9.55;;;;;;;;;;5059017;28;37724;-82
2021/06/14 04:22:56;;;;;;;10.10;8.13;;;;;;;;;;5054613;27;39525;-81
2021/06/14 04:25:23;;;;;;;12.95;8.25;;;;;;;;;;5039495;27;38547;-82
2021/06/14 04:27:49;;;;;;;14.25;8.57;;;;;;;;;;5039383;28;37665;-83
2021/06/14 04:30:16;;;;;;;12.75;8.52;;;;;;;;;;5038961;28;39351;-83
2021/06/14 04:32:44;;;;;;;11.60;7.70;;;;;;;;;;5044594;28;38834;-83
2021/06/14 04:35:10;;;;;;;13.63;8.10;;;;;;;;;;5030912;28;38900;-81
2021/06/14 04:37:37;;;;;;;11.05;7.47;;;;;;;;;;5054452;28;37881;-81
2021/06/14 04:40:04;;;;;;;12.05;7.45;;;;;;;;;;5045233;28;40283;-81
2021/06/14 04:42:30;;;;;;;11.13;7.88;;;;;;;;;;5030138;28;39239;-81
2021/06/14 04:44:57;;;;;;;14.43;8.25;;;;;;;;;;5026842;28;38688;-80
2021/06/14 04:47:24;;;;;;;14.45;7.93;;;;;;;;;;5028425;28;37861;-81
2021/06/14 04:49:50;;;;;;;12.30;7.45;;;;;;;;;;5038191;28;39603;-80
2021/06/14 04:52:17;;;;;;;9.75;7.10;;;;;;;;;;5060446;27;39696;-81
2021/06/14 04:54:43;;;;;;;10.13;7.15;;;;;;;;;;5033787;28;40343;-82
2021/06/14 04:57:09;;;;;;;11.48;7.70;;;;;;;;;;5029682;28;37677;-81
2021/06/14 04:59:36;;;;;;;12.35;7.40;;;;;;;;;;5031990;28;39095;-81
2021/06/14 05:02:03;;;;;;;12.13;7.90;;;;;;;;;;5033733;28;40069;-81
2021/06/14 05:04:31;;;;;;;12.40;7.72;;;;;;;;;;5028392;28;40894;-81
2021/06/14 05:06:57;;;;;;;12.70;7.72;;;;;;;;;;5030231;27;36781;-80
2021/06/14 05:09:24;;;;;;;10.23;6.95;;;;;;;;;;5056559;28;39316;-81
2021/06/14 05:11:50;;;;;;;11.82;7.28;;;;;;;;;;5064498;28;40166;-81
2021/06/14 05:14:17;;;;;;;13.75;8.02;;;;;;;;;;5064749;28;40116;-81
2021/06/14 05:16:43;;;;;;;14.27;6.75;;;;;;;;;;5033843;28;37569;-82
2021/06/14 05:19:12;;;;;;;11.65;7.07;;;;;;;;;;5029674;28;39380;-82
2021/06/14 05:21:39;;;;;;;13.55;7.75;;;;;;;;;;5064559;28;39341;-81
2021/06/14 05:24:05;;;;;;;13.10;7.47;;;;;;;;;;5041662;28;39696;-81
2021/06/14 05:26:32;;;;;;;16.88;7.55;;;;;;;;;;5063002;28;38268;-80
2021/06/14 05:28:58;;;;;;;12.32;7.65;;;;;;;;;;5053585;28;39574;-82
2021/06/14 05:31:25;;;;;;;15.55;6.97;;;;;;;;;;5055590;27;38943;-79
2021/06/14 05:33:51;;;;;;;14.32;7.38;;;;;;;;;;5056791;27;39425;-80
2021/06/14 05:36:17;;;;;;;14.15;8.55;;;;;;;;;;5055093;27;37566;-79
2021/06/14 05:38:44;;;;;;;16.80;7.75;;;;;;;;;;5057759;27;40020;-79
2021/06/14 05:41:10;;;;;;;14.95;7.85;;;;;;;;;;5050153;27;40659;-80
2021/06/14 05:43:37;;;;;;;13.95;7.78;;;;;;;;;;5056681;28;39442;-80
2021/06/14 05:46:03;;;;;;;13.00;6.97;;;;;;;;;;5058348;27;37725;-81
2021/06/14 05:48:29;;;;;;;13.88;7.40;;;;;;;;;;5062498;28;39747;-80
2021/06/14 05:50:56;;;;;;;13.25;7.53;;;;;;;;;;5060998;28;38118;-80
2021/06/14 05:53:23;;;;;;;13.88;7.22;;;;;;;;;;5065157;28;39424;-80
2021/06/14 05:55:50;;;;;;;16.98;7.60;;;;;;;;;;5061996;28;37241;-81
2021/06/14 05:58:17;;;;;;;14.23;7.28;;;;;;;;;;5057249;28;39779;-80
2021/06/14 06:00:44;;;;;;;11.30;7.00;;;;;;;;;;5052848;27;39497;-81
2021/06/14 06:03:11;;;;;;;14.30;7.82;;;;;;;;;;5059712;27;38713;-80
2021/06/14 06:05:37;;;;;;;15.75;7.18;;;;;;;;;;5065338;27;36560;-81
2021/06/14 06:08:04;;;;;;;19.45;7.50;;;;;;;;;;5060049;28;41296;-81
2021/06/14 06:10:30;;;;;;;13.30;6.95;;;;;;;;;;5060569;27;39754;-81
2021/06/14 06:12:56;;;;;;;15.30;7.80;;;;;;;;;;5060938;28;38787;-82
2021/06/14 06:15:23;;;;;;;13.20;6.32;;;;;;;;;;5062056;27;36975;-81
2021/06/14 06:17:49;;;;;;;14.50;7.63;;;;;;;;;;5064129;28;38578;-81
2021/06/14 06:20:17;;;;;;;21.48;7.70;;;;;;;;;;5059135;27;39821;-80
2021/06/14 06:22:43;;;;;;;12.05;6.93;;;;;;;;;;5060752;28;39355;-80
2021/06/14 06:25:11;;;;;;;13.02;7.05;;;;;;;;;;5060654;27;37665;-80
2021/06/14 06:27:37;;;;;;;11.90;6.05;;;;;;;;;;5061996;28;38582;-81
2021/06/14 06:30:05;;;;;;;12.10;7.35;;;;;;;;;;5063637;27;39975;-79
2021/06/14 06:32:31;;;;;;;11.80;6.85;;;;;;;;;;5054168;28;48689;-80
2021/06/14 06:34:58;;;;;;;9.95;5.93;;;;;;;;;;5048520;28;36950;-81
2021/06/14 06:37:24;;;;;;;13.93;6.22;;;;;;;;;;5050481;28;39212;-80
2021/06/14 06:39:51;;;;;;;13.73;7.10;;;;;;;;;;5057065;27;39048;-80
2021/06/14 06:42:17;;;;;;;14.07;6.40;;;;;;;;;;5061940;27;39422;-79
2021/06/14 06:44:43;;;;;;;12.68;6.72;;;;;;;;;;5056983;27;37065;-78
2021/06/14 06:47:10;;;;;;;13.20;6.20;;;;;;;;;;5055574;28;39494;-78
2021/06/14 06:49:36;;;;;;;13.50;6.25;;;;;;;;;;5061568;28;38965;-79
2021/06/14 06:52:03;;;;;;;13.27;7.40;;;;;;;;;;5065865;28;38384;-79
2021/06/14 06:54:29;;;;;;;14.13;7.22;;;;;;;;;;5060290;28;37120;-78
2021/06/14 06:56:56;;;;;;;11.13;6.82;;;;;;;;;;5061571;28;39511;-78
2021/06/14 06:59:23;;;;;;;18.92;7.72;;;;;;;;;;5059312;27;39967;-78
2021/06/14 07:01:50;;;;;;;15.25;6.57;;;;;;;;;;5062044;27;38559;-78
2021/06/14 07:04:16;;;;;;;14.32;6.72;;;;;;;;;;5060630;28;37890;-78
2021/06/14 07:06:43;;;;;;;14.48;6.38;;;;;;;;;;5048713;28;39411;-78
2021/06/14 07:09:09;;;;;;;16.52;6.32;;;;;;;;;;5048157;28;39161;-78
2021/06/14 07:11:36;;;;;;;11.50;5.65;;;;;;;;;;5057162;28;39465;-76
2021/06/14 07:14:02;;;;;;;14.38;6.72;;;;;;;;;;5041065;28;36684;-76
2021/06/14 07:16:29;;;;;;;10.02;5.10;;;;;;;;;;5054081;27;48513;-76
2021/06/14 07:18:55;;;;;;;15.95;6.40;;;;;;;;;;5053745;28;38953;-77
2021/06/14 07:21:22;;;;;;;11.60;5.53;;;;;;;;;;5049188;27;39932;-76
2021/06/14 07:23:49;;;;;;;8.75;5.20;;;;;;;;;;5053775;28;36822;-76
2021/06/14 07:26:16;;;;;;;8.43;5.53;;;;;;;;;;5050100;28;39368;-79
2021/06/14 07:28:43;;;;;;;15.02;5.30;;;;;;;;;;5042808;28;39059;-77
2021/06/14 07:31:10;;;;;;;12.32;5.45;;;;;;;;;;5033526;28;39319;-77
2021/06/14 07:33:36;;;;;;;10.70;5.60;;;;;;;;;;5038052;28;37009;-78
2021/06/14 07:36:04;;;;;;;18.40;5.30;;;;;;;;;;5032276;28;40862;-78
2021/06/14 07:38:30;;;;;;;10.75;5.40;;;;;;;;;;5066654;28;40026;-78
2021/06/14 07:40:57;;;;;;;11.30;5.53;;;;;;;;;;5085668;27;38643;-79
2021/06/14 07:43:24;;;;;;;15.73;6.63;;;;;;;;;;5091238;28;36611;-79
2021/06/14 07:45:51;;;;;;;11.85;5.53;;;;;;;;;;5085305;27;38531;-78
2021/06/14 07:48:18;;;;;;;13.25;5.82;;;;;;;;;;5032232;28;40516;-79
2021/06/14 07:50:45;;;;;;;10.35;4.95;;;;;;;;;;5034303;27;39556;-79
2021/06/14 07:53:11;;;;;;;13.30;5.13;;;;;;;;;;5038116;28;37640;-81
2021/06/14 07:55:38;;;;;;;8.27;4.78;;;;;;;;;;5034234;28;39333;-78
2021/06/14 07:58:05;;;;;;;11.00;4.75;;;;;;;;;;5039980;28;39882;-80
2021/06/14 08:00:31;;;;;;;11.73;5.28;;;;;;;;;;5074333;28;40383;-80
2021/06/14 08:02:58;;;;;;;12.68;5.10;;;;;;;;;;5075880;28;37476;-80
2021/06/14 08:05:24;;;;;;;14.25;5.75;;;;;;;;;;5070786;28;39028;-79
2021/06/14 08:07:51;;;;;;;15.13;5.32;;;;;;;;;;5042353;28;38584;-80
2021/06/14 08:10:18;;;;;;;14.23;5.93;;;;;;;;;;5043058;28;38711;-80
2021/06/14 08:12:49;;;;;;;11.45;5.22;;;;;;;;;;5046770;28;37676;-78
2021/06/14 08:15:21;;;;;;;8.30;4.60;;;;;;;;;;5037822;28;39236;-80
2021/06/14 08:17:48;;;;;;;;;;;;;;;;;;5068713;28;39444;-80
2021/06/14 08:25:49;;;;;;;11.90;4.68;;;;;;;;;;5043747;28;49216;-80
2021/06/14 08:28:15;;;;;;;8.18;4.50;;;;;;;;;;5057259;28;39530;-79
2021/06/14 08:30:41;;;;;;;12.50;5.10;;;;;;;;;;5063608;28;38614;-80
2021/06/14 08:33:08;;;;;;;9.13;4.53;;;;;;;;;;5059496;28;38014;-79
2021/06/14 08:35:35;;;;;;;8.60;4.38;;;;;;;;;;5049966;28;39946;-78
2021/06/14 08:38:02;;;;;;;10.57;5.15;;;;;;;;;;5055487;28;40795;-79
2021/06/14 08:40:29;;;;;;;9.77;4.47;;;;;;;;;;5057623;28;47388;-80
2021/06/14 08:43:02;;;;;;;12.25;5.18;;;;;;;;;;5042315;28;37395;-77
2021/06/14 08:45:29;;;;;;;10.43;4.88;;;;;;;;;;5047640;27;47853;-78
2021/06/14 08:47:56;;;;;;;12.15;5.00;;;;;;;;;;5083205;27;39008;-79
2021/06/14 08:50:22;;;;;;;9.32;4.75;;;;;;;;;;5051716;28;38703;-77
2021/06/14 08:52:49;;;;;;;10.95;4.13;;;;;;;;;;5061428;27;36762;-77
2021/06/14 08:55:16;;;;;;;6.72;4.30;;;;;;;;;;5049975;27;39438;-78
2021/06/14 08:57:43;;;;;;;7.45;3.72;;;;;;;;;;5052221;27;39074;-79
2021/06/14 09:00:13;;;;;;;8.15;4.60;;;;;;;;;;5057435;28;38851;-80
2021/06/14 09:02:39;;;;;;;9.18;4.30;;;;;;;;;;5048458;28;37993;-79
2021/06/14 09:05:07;;;;;;;9.18;4.03;;;;;;;;;;5068692;27;38889;-81
2021/06/14 09:07:34;;;;;;;11.30;5.07;;;;;;;;;;5051740;28;39988;-80
2021/06/14 09:10:00;;;;;;;10.30;4.47;;;;;;;;;;5060015;28;40758;-79
2021/06/14 09:12:36;;;;;;;9.25;4.25;;;;;;;;;;5059490;28;38582;-80
2021/06/14 09:15:07;;;;;;;10.00;3.92;;;;;;;;;;5055532;28;40038;-80
2021/06/14 09:17:33;;;;;;;10.18;4.72;;;;;;;;;;5060728;28;48962;-78
2021/06/14 09:20:00;;;;;;;10.15;4.60;;;;;;;;;;5064833;27;38288;-76
2021/06/14 09:22:27;;;;;;;10.93;3.97;;;;;;;;;;5063357;28;37449;-79
2021/06/14 09:24:53;;;;;;;9.13;4.40;;;;;;;;;;5069767;27;38640;-77
2021/06/14 09:27:27;;;;;;;7.05;3.58;;;;;;;;;;5065012;27;39158;-79
2021/06/14 09:29:53;;;;;;;8.70;3.67;;;;;;;;;;5054764;28;38730;-77
2021/06/14 09:32:19;;;;;;;7.82;3.50;;;;;;;;;;5051846;28;35632;-80
2021/06/14 09:34:47;;;;;;;7.47;3.75;;;;;;;;;;5068638;28;39749;-81
2021/06/14 09:37:17;;;;;;;9.75;4.80;;;;;;;;;;5066130;27;40558;-81
2021/06/14 09:39:45;;;;;;;10.13;3.93;;;;;;;;;;5072867;28;39095;-79
2021/06/14 09:42:15;;;;;;;6.82;3.58;;;;;;;;;;5070870;27;37699;-78
2021/06/14 09:44:41;;;;;;;10.20;3.90;;;;;;;;;;5068167;28;39951;-79
2021/06/14 09:47:11;;;;;;;9.88;3.58;;;;;;;;;;5039926;28;39426;-76
2021/06/14 09:49:39;;;;;;;8.13;3.47;;;;;;;;;;5075545;28;38863;-78
2021/06/14 09:52:06;;;;;;;7.45;3.55;;;;;;;;;;5033151;27;37168;-79
2021/06/14 09:54:33;;;;;;;12.25;3.35;;;;;;;;;;5033495;28;38448;-77
2021/06/14 09:57:01;;;;;;;8.50;4.32;;;;;;;;;;5064612;27;39498;-76
2021/06/14 09:59:34;;;;;;;8.35;4.00;;;;;;;;;;5037135;28;48923;-80
2021/06/14 10:02:05;;;;;;;9.15;4.05;;;;;;;;;;5042353;28;37300;-76
2021/06/14 10:04:31;;;;;;;7.80;3.80;;;;;;;;;;5038360;28;48881;-78
2021/06/14 10:07:08;;;;;;;6.38;3.20;;;;;;;;;;5048560;27;39925;-78
2021/06/14 10:09:48;;;;;;;6.53;3.33;;;;;;;;;;5048825;28;47247;-79
2021/06/14 10:12:19;;;;;;;4.60;3.00;;;;;;;;;;5062504;28;37204;-78
2021/06/14 10:14:50;;;;;;;7.72;3.15;;;;;;;;;;5072741;27;37966;-79
2021/06/14 10:17:16;;;;;;;8.73;3.80;;;;;;;;;;5068526;27;39036;-78
2021/06/14 10:19:43;;;;;;;9.90;3.58;;;;;;;;;;5059810;28;39919;-77
2021/06/14 10:22:09;;;;;;;9.20;4.00;;;;;;;;;;5053502;28;36536;-76
2021/06/14 10:24:35;;;;;;;6.90;3.50;;;;;;;;;;5059325;28;39388;-78
2021/06/14 10:27:02;;;;;;;6.07;3.38;;;;;;;;;;5063838;28;39305;-77
2021/06/14 10:29:28;;;;;;;5.95;3.25;;;;;;;;;;5055204;28;39145;-78
2021/06/14 10:31:55;;;;;;;6.28;3.28;;;;;;;;;;5047212;28;37042;-78
2021/06/14 10:34:23;;;;;;;7.13;3.22;;;;;;;;;;5037587;28;39088;-76
2021/06/14 10:36:52;;;;;;;5.80;3.03;;;;;;;;;;5037234;28;39974;-77
2021/06/14 10:39:21;;;;;;;6.63;3.05;;;;;;;;;;5037399;28;39728;-77
2021/06/14 10:41:48;;;;;;;6.47;3.38;;;;;;;;;;5033557;28;37636;-76
2021/06/14 10:44:15;;;;;;;6.78;3.05;;;;;;;;;;5045022;28;38861;-78
2021/06/14 10:46:45;;;;;;;4.45;2.70;;;;;;;;;;5060655;28;38977;-78
2021/06/14 10:49:12;;;;;;;5.25;3.15;;;;;;;;;;5031820;28;39735;-77
2021/06/14 10:51:40;;;;;;;7.32;3.15;;;;;;;;;;5043412;28;38421;-77
2021/06/14 10:54:10;;;;;;;5.72;3.45;;;;;;;;;;5032167;28;38983;-76
2021/06/14 10:56:38;;;;;;;7.38;3.58;;;;;;;;;;5042543;27;39896;-79
2021/06/14 10:59:07;;;;;;;5.03;2.97;;;;;;;;;;5032693;28;38807;-75
2021/06/14 11:01:35;;;;;;;6.65;3.15;;;;;;;;;;5072665;27;37588;-77
2021/06/14 11:04:02;;;;;;;6.70;3.17;;;;;;;;;;5076253;28;38395;-77
2021/06/14 11:06:30;;;;;;;6.13;3.13;;;;;;;;;;5050998;28;47568;-78
2021/06/14 11:09:01;;;;;;;10.40;3.22;;;;;;;;;;5064242;28;37338;-75
2021/06/14 11:11:28;;;;;;;8.63;2.88;;;;;;;;;;5042611;28;35993;-76
2021/06/14 11:13:55;;;;;;;9.40;3.45;;;;;;;;;;5041501;28;41374;-76
2021/06/14 11:16:22;;;;;;;8.27;3.45;;;;;;;;;;5037875;27;39755;-76
2021/06/14 11:18:51;;;;;;;5.55;3.10;;;;;;;;;;5040498;28;38791;-77
2021/06/14 11:21:19;;;;;;;5.22;2.92;;;;;;;;;;5039161;28;37913;-76
2021/06/14 11:23:50;;;;;;;12.00;3.17;;;;;;;;;;5036811;28;39705;-75
2021/06/14 11:26:29;;;;;;;6.43;2.55;;;;;;;;;;5035997;28;38686;-77
2021/06/14 11:28:56;;;;;;;7.80;2.42;;;;;;;;;;5066883;28;37766;-77
2021/06/14 11:31:24;;;;;;;8.00;3.00;;;;;;;;;;5035160;27;36741;-79
2021/06/14 11:33:51;;;;;;;5.50;2.83;;;;;;;;;;5026920;28;39203;-77
2021/06/14 11:36:19;;;;;;;6.65;2.70;;;;;;;;;;5062280;27;37814;-78
2021/06/14 11:38:46;;;;;;;8.85;3.22;;;;;;;;;;5067099;28;38508;-77
2021/06/14 11:41:13;;;;;;;7.13;3.05;;;;;;;;;;5058213;27;36103;-77
2021/06/14 11:43:39;;;;;;;9.15;3.50;;;;;;;;;;5032012;28;38761;-77
2021/06/14 11:46:19;;;;;;;8.93;2.80;;;;;;;;;;5030409;28;37809;-76
2021/06/14 11:48:47;;;;;;;5.20;3.17;;;;;;;;;;5062934;28;39009;-78
2021/06/14 11:51:18;;;;;;;6.68;3.08;;;;;;;;;;5044287;27;37081;-78
2021/06/14 11:53:52;;;;;;;6.72;3.47;;;;;;;;;;5043831;28;39939;-79
2021/06/14 11:56:19;;;;;;;6.72;3.13;;;;;;;;;;5050127;27;39592;-76
2021/06/14 11:58:51;;;;;;;6.88;3.58;;;;;;;;;;5059126;28;38498;-78
2021/06/14 12:01:18;;;;;;;;;;;;;;;;;;5050870;28;38490;-78
2021/06/14 12:03:44;;;;;;;6.63;3.17;;;;;;;;;;5079880;27;40414;-79
2021/06/14 12:06:10;;;;;;;5.50;2.97;;;;;;;;;;5058634;28;40616;-78
2021/06/14 12:08:37;;;;;;;9.70;3.60;;;;;;;;;;5063098;28;38493;-78
2021/06/14 12:11:07;;;;;;;6.68;3.78;;;;;;;;;;5060307;28;38281;-78
2021/06/14 12:13:34;;;;;;;9.90;3.88;;;;;;;;;;5061521;28;40682;-76
2021/06/14 12:16:00;;;;;;;5.57;2.47;;;;;;;;;;5060749;28;40273;-76
2021/06/14 12:18:27;;;;;;;5.07;2.42;;;;;;;;;;5060079;28;47627;-77
2021/06/14 12:20:54;;;;;;;4.45;2.90;;;;;;;;;;5052523;27;38923;-77
2021/06/14 12:23:20;;;;;;;5.00;3.10;;;;;;;;;;5040938;28;39584;-77
2021/06/14 12:25:51;;;;;;;7.13;3.17;;;;;;;;;;5053734;28;40620;-78
2021/06/14 12:28:18;;;;;;;10.20;2.97;;;;;;;;;;5049060;28;39450;-78
2021/06/14 12:30:46;;;;;;;6.25;2.88;;;;;;;;;;5051641;28;37029;-78
2021/06/14 12:33:23;;;;;;;8.50;3.65;;;;;;;;;;5041837;27;38279;-77
2021/06/14 12:35:51;;;;;;;7.22;3.13;;;;;;;;;;5031456;28;39783;-77
2021/06/14 12:38:18;;;;;;;4.70;2.65;;;;;;;;;;5033494;28;40133;-78
2021/06/14 12:40:44;;;;;;;8.45;3.10;;;;;;;;;;5046708;28;35761;-76
2021/06/14 12:43:12;;;;;;;7.20;3.10;;;;;;;;;;5053935;27;39760;-77
2021/06/14 12:45:39;;;;;;;6.85;2.60;;;;;;;;;;5047767;28;39575;-77
2021/06/14 12:48:07;;;;;;;4.82;2.30;;;;;;;;;;5062778;28;40443;-79
2021/06/14 12:50:33;;;;;;;8.38;2.72;;;;;;;;;;5060231;27;36949;-77
2021/06/14 12:53:01;;;;;;;4.53;2.28;;;;;;;;;;5066111;28;40370;-78
2021/06/14 12:55:38;;;;;;;3.92;2.45;;;;;;;;;;5048182;27;48535;-76
2021/06/14 12:58:12;;;;;;;3.75;2.42;;;;;;;;;;5053224;28;39329;-77
2021/06/14 13:00:40;;;;;;;7.55;3.33;;;;;;;;;;5062506;27;36920;-78
2021/06/14 13:03:07;;;;;;;4.38;2.45;;;;;;;;;;5055845;27;40397;-78
2021/06/14 13:05:35;;;;;;;7.00;2.72;;;;;;;;;;5064355;28;39198;-78
2021/06/14 13:08:04;;;;;;;5.43;2.35;;;;;;;;;;5067186;27;38704;-76
2021/06/14 13:10:50;;;;;;;5.22;2.65;;;;;;;;;;5056026;27;37157;-75
2021/06/14 13:13:18;;;;;;;5.55;2.40;;;;;;;;;;5053264;28;39399;-79
2021/06/14 13:15:46;;;;;;;4.18;2.60;;;;;;;;;;5065744;27;41608;-77
2021/06/14 13:18:16;;;;;;;5.53;2.50;;;;;;;;;;5063319;27;40027;-76
2021/06/14 13:20:43;;;;;;;3.55;2.33;;;;;;;;;;5067903;28;37704;-75
2021/06/14 13:23:11;;;;;;;3.97;2.13;;;;;;;;;;5067347;28;39852;-75
2021/06/14 13:25:42;;;;;;;6.80;2.53;;;;;;;;;;5062961;28;39904;-77
2021/06/14 13:28:08;;;;;;;7.72;2.97;;;;;;;;;;5058759;27;39604;-76
2021/06/14 13:30:44;;;;;;;4.88;2.58;;;;;;;;;;5058363;27;38191;-78
2021/06/14 13:33:21;;;;;;;7.50;2.55;;;;;;;;;;5064804;28;38788;-77
2021/06/14 13:35:52;;;;;;;5.15;2.70;;;;;;;;;;5068501;28;20045;-78
2021/06/14 13:38:22;;;;;;;5.97;2.45;;;;;;;;;;5060277;27;38188;-77
2021/06/14 13:40:49;;;;;;;5.65;2.78;;;;;;;;;;5062093;28;35831;-78
2021/06/14 13:43:22;;;;;;;4.00;2.60;;;;;;;;;;5055993;27;40064;-79
2021/06/14 13:45:49;;;;;;;3.65;2.20;;;;;;;;;;5066684;28;40013;-78
2021/06/14 13:48:17;;;;;;;39.08;35.42;;;;;;;;;;5060622;27;37326;-77
2021/06/14 13:50:48;;;;;;;8.23;3.53;;;;;;;;;;5058091;28;38469;-77
2021/06/14 13:53:16;;;;;;;5.07;2.72;;;;;;;;;;5058555;27;40525;-77
2021/06/14 13:55:56;;;;;;;13.80;11.18;;;;;;;;;;5065465;28;40066;-76
2021/06/14 13:58:32;;;;;;;3.25;2.30;;;;;;;;;;5056631;27;39351;-77
2021/06/14 14:01:09;;;;;;;5.40;2.33;;;;;;;;;;5052076;28;37210;-76
2021/06/14 14:03:36;;;;;;;8.95;2.67;;;;;;;;;;5048537;28;47663;-77
2021/06/14 14:06:02;;;;;;;3.67;2.25;;;;;;;;;;5059557;27;39347;-77
2021/06/14 14:08:29;;;;;;;3.60;2.20;;;;;;;;;;5059005;28;38274;-77
2021/06/14 14:10:55;;;;;;;4.45;2.00;;;;;;;;;;5050188;28;37499;-76
2021/06/14 14:13:22;;;;;;;4.32;2.05;;;;;;;;;;5054163;27;39785;-76
2021/06/14 14:15:50;;;;;;;5.65;2.40;;;;;;;;;;5056893;28;40614;-77
2021/06/14 14:18:19;;;;;;;4.07;2.30;;;;;;;;;;5055754;28;39021;-75
2021/06/14 14:20:46;;;;;;;3.72;2.28;;;;;;;;;;5083176;27;36932;-75
2021/06/14 14:23:13;;;;;;;3.60;2.25;;;;;;;;;;5073213;27;38321;-74
2021/06/14 14:25:40;;;;;;;5.72;2.40;;;;;;;;;;5056046;28;38976;-74
2021/06/14 14:28:07;;;;;;;4.72;2.42;;;;;;;;;;5054729;28;38256;-75
2021/06/14 14:30:39;;;;;;;3.15;2.05;;;;;;;;;;5056851;28;37149;-76
2021/06/14 14:33:06;;;;;;;3.85;2.17;;;;;;;;;;5054792;27;39176;-77
2021/06/14 14:35:46;;;;;;;3.90;2.22;;;;;;;;;;5055162;28;39420;-76
2021/06/14 14:38:13;;;;;;;5.07;1.92;;;;;;;;;;5058689;27;38105;-77
2021/06/14 14:40:40;;;;;;;6.70;2.70;;;;;;;;;;5054282;28;37185;-76
2021/06/14 14:43:07;;;;;;;7.35;2.47;;;;;;;;;;5057812;27;39334;-75
2021/06/14 14:45:34;;;;;;;3.50;2.17;;;;;;;;;;5059754;28;38926;-76
2021/06/14 14:48:02;;;;;;;5.57;2.55;;;;;;;;;;5055913;28;39794;-77